createdAt,value
2018-05-07T00:00:39.842Z,0.00
2018-05-07T00:01:39.825Z,0.00
2018-05-07T00:02:39.811Z,0.00
2018-05-07T00:03:39.794Z,0.00
2018-05-07T00:04:39.778Z,0.00
2018-05-07T00:05:39.761Z,0.00
2018-05-07T00:06:39.745Z,0.00
2018-05-07T00:07:39.732Z,0.00
2018-05-07T00:08:39.724Z,0.00
2018-05-07T00:09:39.727Z,0.00
2018-05-07T00:10:39.683Z,0.00
2018-05-07T00:11:39.675Z,0.00
2018-05-07T00:12:39.647Z,0.00
2018-05-07T00:13:39.633Z,0.00
2018-05-07T00:14:39.613Z,0.00
2018-05-07T00:15:39.596Z,0.00
2018-05-07T00:16:39.582Z,0.00
2018-05-07T00:17:39.563Z,0.00
2018-05-07T00:18:39.554Z,0.00
2018-05-07T00:19:39.539Z,0.00
2018-05-07T00:20:39.599Z,0.00
2018-05-07T00:21:39.498Z,0.00
2018-05-07T00:22:39.483Z,0.00
2018-05-07T00:23:39.469Z,0.00
2018-05-07T00:24:39.449Z,0.00
2018-05-07T00:25:39.436Z,0.00
2018-05-07T00:26:39.495Z,0.00
2018-05-07T00:27:39.405Z,0.00
2018-05-07T00:28:39.391Z,0.00
2018-05-07T00:29:39.367Z,0.00
2018-05-07T00:30:39.350Z,0.00
2018-05-07T00:31:39.334Z,0.00
2018-05-07T00:32:39.318Z,0.00
2018-05-07T00:33:39.302Z,0.00
2018-05-07T00:34:39.285Z,0.00
2018-05-07T00:35:39.268Z,0.00
2018-05-07T00:36:39.256Z,0.00
2018-05-07T00:37:39.238Z,0.00
2018-05-07T00:38:39.218Z,0.00
2018-05-07T00:39:39.202Z,0.00
2018-05-07T00:40:39.184Z,0.00
2018-05-07T00:41:39.167Z,0.00
2018-05-07T00:42:39.153Z,0.00
2018-05-07T00:43:39.133Z,0.00
2018-05-07T00:44:39.118Z,0.00
2018-05-07T00:45:39.103Z,0.00
2018-05-07T00:46:39.085Z,0.00
2018-05-07T00:47:39.068Z,0.00
2018-05-07T00:48:39.050Z,0.00
2018-05-07T00:49:39.035Z,0.00
2018-05-07T00:50:39.018Z,0.00
2018-05-07T00:51:39.003Z,0.00
2018-05-07T00:52:38.983Z,0.00
2018-05-07T00:53:38.969Z,0.00
2018-05-07T00:54:38.951Z,0.00
2018-05-07T00:55:38.931Z,0.00
2018-05-07T00:56:38.917Z,0.00
2018-05-07T00:57:38.900Z,0.00
2018-05-07T00:58:38.882Z,0.00
2018-05-07T00:59:38.868Z,0.00
2018-05-07T01:00:38.855Z,0.00
2018-05-07T01:01:38.832Z,0.00
2018-05-07T01:02:38.820Z,0.00
2018-05-07T01:03:38.799Z,0.00
2018-05-07T01:04:38.783Z,0.00
2018-05-07T01:05:38.768Z,0.00
2018-05-07T01:06:38.751Z,0.00
2018-05-07T01:07:38.736Z,0.00
2018-05-07T01:08:38.713Z,0.00
2018-05-07T01:09:38.698Z,0.00
2018-05-07T01:10:38.681Z,0.00
2018-05-07T01:11:38.661Z,0.00
2018-05-07T01:12:38.647Z,0.00
2018-05-07T01:13:38.638Z,0.00
2018-05-07T01:14:38.612Z,0.00
2018-05-07T01:15:38.594Z,0.00
2018-05-07T01:16:38.582Z,0.00
2018-05-07T01:17:38.560Z,0.00
2018-05-07T01:18:38.547Z,0.00
2018-05-07T01:19:38.528Z,0.00
2018-05-07T01:20:38.510Z,0.00
2018-05-07T01:21:38.500Z,0.00
2018-05-07T01:22:38.477Z,0.00
2018-05-07T01:23:38.509Z,0.00
2018-05-07T01:24:38.445Z,0.00
2018-05-07T01:25:38.425Z,0.00
2018-05-07T01:26:38.408Z,0.00
2018-05-07T01:27:38.390Z,0.00
2018-05-07T01:28:38.373Z,0.00
2018-05-07T01:29:38.356Z,0.00
2018-05-07T01:30:38.340Z,0.00
2018-05-07T01:31:38.323Z,0.00
2018-05-07T01:32:38.310Z,0.00
2018-05-07T01:33:38.288Z,0.00
2018-05-07T01:34:38.270Z,0.00
2018-05-07T01:35:38.252Z,0.00
2018-05-07T01:36:38.234Z,0.00
2018-05-07T01:37:38.219Z,0.00
2018-05-07T01:38:38.200Z,0.00
2018-05-07T01:39:38.185Z,0.00
2018-05-07T01:40:38.171Z,0.00
2018-05-07T01:41:38.150Z,0.00
2018-05-07T01:42:38.132Z,0.00
2018-05-07T01:43:38.116Z,0.00
2018-05-07T01:44:38.097Z,0.00
2018-05-07T01:45:38.081Z,0.00
2018-05-07T01:46:38.065Z,0.00
2018-05-07T01:47:38.048Z,0.00
2018-05-07T01:48:38.030Z,0.00
2018-05-07T01:49:38.011Z,0.00
2018-05-07T01:50:37.995Z,0.00
2018-05-07T01:51:37.979Z,0.00
2018-05-07T01:52:37.959Z,0.00
2018-05-07T01:53:37.941Z,0.00
2018-05-07T01:54:37.963Z,0.00
2018-05-07T01:55:37.905Z,0.00
2018-05-07T01:56:37.890Z,0.00
2018-05-07T01:57:37.872Z,0.00
2018-05-07T01:58:37.854Z,0.00
2018-05-07T01:59:37.835Z,0.00
2018-05-07T02:00:37.885Z,0.00
2018-05-07T02:01:37.803Z,0.00
2018-05-07T02:02:37.785Z,0.00
2018-05-07T02:03:37.772Z,0.00
2018-05-07T02:04:37.747Z,0.00
2018-05-07T02:05:37.733Z,0.00
2018-05-07T02:06:37.712Z,0.00
2018-05-07T02:07:37.693Z,0.00
2018-05-07T02:08:37.680Z,0.00
2018-05-07T02:09:37.663Z,0.00
2018-05-07T02:10:37.645Z,0.00
2018-05-07T02:11:37.624Z,0.00
2018-05-07T02:12:37.607Z,0.00
2018-05-07T02:13:37.587Z,0.00
2018-05-07T02:14:37.571Z,0.00
2018-05-07T02:15:37.553Z,0.00
2018-05-07T02:16:37.534Z,0.00
2018-05-07T02:17:37.516Z,0.00
2018-05-07T02:18:37.499Z,0.00
2018-05-07T02:19:37.491Z,0.00
2018-05-07T02:20:37.464Z,0.00
2018-05-07T02:21:37.450Z,0.00
2018-05-07T02:22:37.430Z,0.00
2018-05-07T02:23:37.415Z,0.00
2018-05-07T02:24:37.395Z,0.00
2018-05-07T02:25:37.376Z,0.00
2018-05-07T02:26:37.357Z,0.00
2018-05-07T02:27:37.350Z,0.00
2018-05-07T02:28:37.322Z,0.00
2018-05-07T02:29:37.308Z,0.00
2018-05-07T02:30:37.286Z,0.00
2018-05-07T02:31:37.275Z,0.00
2018-05-07T02:32:37.251Z,0.00
2018-05-07T02:33:37.233Z,0.00
2018-05-07T02:34:37.219Z,0.00
2018-05-07T02:35:37.196Z,0.00
2018-05-07T02:36:37.182Z,0.00
2018-05-07T02:37:37.161Z,0.00
2018-05-07T02:38:37.146Z,0.00
2018-05-07T02:39:37.125Z,0.00
2018-05-07T02:40:37.108Z,0.00
2018-05-07T02:41:37.103Z,0.00
2018-05-07T02:42:37.074Z,0.00
2018-05-07T02:43:37.058Z,0.00
2018-05-07T02:44:37.038Z,0.00
2018-05-07T02:45:37.019Z,0.00
2018-05-07T02:46:37.002Z,0.00
2018-05-07T02:47:36.980Z,4.00
2018-05-07T02:48:36.964Z,4.00
2018-05-07T02:49:36.952Z,0.00
2018-05-07T02:50:36.935Z,0.00
2018-05-07T02:51:36.968Z,4.00
2018-05-07T02:52:36.891Z,4.00
2018-05-07T02:53:36.874Z,0.00
2018-05-07T02:54:36.859Z,4.00
2018-05-07T02:55:36.841Z,4.00
2018-05-07T02:56:36.819Z,4.00
2018-05-07T02:57:36.806Z,8.00
2018-05-07T02:58:36.784Z,4.00
2018-05-07T02:59:36.765Z,4.00
2018-05-07T03:00:36.747Z,12.00
2018-05-07T03:01:36.730Z,12.00
2018-05-07T03:02:36.714Z,12.00
2018-05-07T03:03:36.693Z,16.00
2018-05-07T03:04:36.675Z,16.00
2018-05-07T03:05:36.657Z,16.00
2018-05-07T03:06:36.640Z,20.00
2018-05-07T03:07:36.623Z,24.00
2018-05-07T03:08:36.601Z,28.00
2018-05-07T03:09:36.589Z,32.00
2018-05-07T03:10:36.573Z,32.00
2018-05-07T03:11:36.547Z,40.00
2018-05-07T03:12:36.529Z,44.00
2018-05-07T03:13:36.513Z,48.00
2018-05-07T03:14:36.498Z,56.00
2018-05-07T03:15:36.479Z,60.00
2018-05-07T03:16:36.456Z,64.00
2018-05-07T03:17:36.457Z,72.00
2018-05-07T03:18:36.420Z,80.00
2018-05-07T03:19:36.403Z,88.00
2018-05-07T03:20:36.385Z,96.00
2018-05-07T03:21:36.369Z,108.00
2018-05-07T03:22:36.349Z,116.00
2018-05-07T03:23:36.330Z,128.00
2018-05-07T03:24:36.315Z,136.00
2018-05-07T03:25:36.296Z,148.00
2018-05-07T03:26:36.276Z,156.00
2018-05-07T03:27:36.256Z,168.00
2018-05-07T03:28:36.239Z,184.00
2018-05-07T03:29:36.219Z,192.00
2018-05-07T03:30:36.203Z,204.00
2018-05-07T03:31:36.187Z,220.00
2018-05-07T03:32:36.167Z,236.00
2018-05-07T03:33:36.149Z,244.00
2018-05-07T03:34:36.131Z,260.00
2018-05-07T03:35:36.113Z,276.00
2018-05-07T03:36:36.094Z,288.00
2018-05-07T03:37:36.076Z,304.00
2018-05-07T03:38:36.061Z,320.00
2018-05-07T03:39:36.040Z,332.00
2018-05-07T03:40:36.039Z,352.00
2018-05-07T03:41:36.002Z,368.00
2018-05-07T03:42:35.985Z,380.00
2018-05-07T03:43:35.966Z,396.00
2018-05-07T03:44:35.951Z,412.00
2018-05-07T03:45:35.931Z,428.00
2018-05-07T03:46:35.910Z,444.00
2018-05-07T03:47:35.891Z,460.00
2018-05-07T03:48:35.875Z,476.00
2018-05-07T03:49:35.856Z,492.00
2018-05-07T03:50:35.839Z,504.00
2018-05-07T03:51:35.826Z,524.00
2018-05-07T03:52:35.803Z,536.00
2018-05-07T03:53:35.787Z,552.00
2018-05-07T03:54:35.778Z,568.00
2018-05-07T03:55:35.757Z,580.00
2018-05-07T03:56:35.730Z,596.00
2018-05-07T03:57:35.711Z,608.00
2018-05-07T03:58:35.702Z,624.00
2018-05-07T03:59:35.754Z,636.00
2018-05-07T04:00:35.658Z,652.00
2018-05-07T04:01:35.639Z,668.00
2018-05-07T04:02:35.620Z,680.00
2018-05-07T04:03:35.601Z,692.00
2018-05-07T04:04:35.585Z,704.00
2018-05-07T04:05:35.565Z,720.00
2018-05-07T04:06:35.548Z,732.00
2018-05-07T04:07:35.530Z,744.00
2018-05-07T04:08:35.510Z,760.00
2018-05-07T04:09:35.492Z,772.00
2018-05-07T04:10:35.474Z,784.00
2018-05-07T04:11:35.455Z,796.00
2018-05-07T04:12:35.442Z,812.00
2018-05-07T04:13:35.419Z,824.00
2018-05-07T04:14:35.405Z,832.00
2018-05-07T04:15:35.383Z,844.00
2018-05-07T04:16:35.365Z,860.00
2018-05-07T04:17:35.345Z,868.00
2018-05-07T04:18:35.327Z,876.00
2018-05-07T04:19:35.305Z,892.00
2018-05-07T04:20:35.296Z,900.00
2018-05-07T04:21:35.274Z,912.00
2018-05-07T04:22:35.253Z,924.00
2018-05-07T04:23:35.312Z,932.00
2018-05-07T04:24:35.222Z,940.00
2018-05-07T04:25:35.200Z,956.00
2018-05-07T04:26:35.188Z,964.00
2018-05-07T04:27:35.160Z,976.00
2018-05-07T04:28:35.145Z,984.00
2018-05-07T04:29:35.126Z,996.00
2018-05-07T04:30:35.107Z,1004.00
2018-05-07T04:31:35.089Z,1016.00
2018-05-07T04:32:35.080Z,1024.00
2018-05-07T04:33:35.054Z,1032.00
2018-05-07T04:34:35.036Z,1044.00
2018-05-07T04:35:35.021Z,1052.00
2018-05-07T04:36:34.998Z,1064.00
2018-05-07T04:37:34.979Z,1072.00
2018-05-07T04:38:34.963Z,1080.00
2018-05-07T04:39:34.947Z,1088.00
2018-05-07T04:40:34.924Z,1096.00
2018-05-07T04:41:34.908Z,1108.00
2018-05-07T04:42:34.890Z,1116.00
2018-05-07T04:43:34.872Z,1120.00
2018-05-07T04:44:34.851Z,1136.00
2018-05-07T04:45:34.836Z,1148.00
2018-05-07T04:46:34.821Z,1156.00
2018-05-07T04:47:34.798Z,1164.00
2018-05-07T04:48:34.780Z,1172.00
2018-05-07T04:49:34.761Z,1180.00
2018-05-07T04:50:34.746Z,1188.00
2018-05-07T04:51:34.729Z,1196.00
2018-05-07T04:52:34.710Z,1208.00
2018-05-07T04:53:34.690Z,1216.00
2018-05-07T04:54:34.674Z,1220.00
2018-05-07T04:55:34.653Z,1232.00
2018-05-07T04:56:34.635Z,1240.00
2018-05-07T04:57:34.618Z,1248.00
2018-05-07T04:58:34.602Z,1256.00
2018-05-07T04:59:34.583Z,1268.00
2018-05-07T05:00:34.565Z,1276.00
2018-05-07T05:01:34.545Z,1284.00
2018-05-07T05:02:34.528Z,1288.00
2018-05-07T05:03:34.509Z,1300.00
2018-05-07T05:04:34.495Z,1308.00
2018-05-07T05:05:34.477Z,1316.00
2018-05-07T05:06:34.457Z,1324.00
2018-05-07T05:07:34.439Z,1328.00
2018-05-07T05:08:34.425Z,1336.00
2018-05-07T05:09:34.404Z,1344.00
2018-05-07T05:10:34.385Z,1352.00
2018-05-07T05:11:34.369Z,1360.00
2018-05-07T05:12:34.355Z,1368.00
2018-05-07T05:13:34.334Z,1376.00
2018-05-07T05:14:34.315Z,1384.00
2018-05-07T05:15:34.296Z,1392.00
2018-05-07T05:16:34.278Z,1396.00
2018-05-07T05:17:34.263Z,1408.00
2018-05-07T05:18:34.245Z,1416.00
2018-05-07T05:19:34.225Z,1424.00
2018-05-07T05:20:34.211Z,1432.00
2018-05-07T05:21:34.194Z,1440.00
2018-05-07T05:22:34.174Z,1448.00
2018-05-07T05:23:34.157Z,1456.00
2018-05-07T05:24:34.139Z,1468.00
2018-05-07T05:25:34.129Z,1472.00
2018-05-07T05:26:34.105Z,1480.00
2018-05-07T05:27:34.089Z,1492.00
2018-05-07T05:28:34.069Z,1500.00
2018-05-07T05:29:34.051Z,1508.00
2018-05-07T05:30:34.044Z,1516.00
2018-05-07T05:31:34.017Z,1524.00
2018-05-07T05:32:34.000Z,1536.00
2018-05-07T05:33:33.982Z,1548.00
2018-05-07T05:34:33.969Z,1556.00
2018-05-07T05:35:33.950Z,1564.00
2018-05-07T05:36:33.930Z,1572.00
2018-05-07T05:37:33.914Z,1584.00
2018-05-07T05:38:33.899Z,1596.00
2018-05-07T05:39:33.880Z,1608.00
2018-05-07T05:40:33.867Z,1616.00
2018-05-07T05:41:33.846Z,1628.00
2018-05-07T05:42:33.829Z,1636.00
2018-05-07T05:43:33.916Z,1648.00
2018-05-07T05:44:33.794Z,1656.00
2018-05-07T05:45:33.780Z,1668.00
2018-05-07T05:46:33.763Z,1676.00
2018-05-07T05:47:33.744Z,1692.00
2018-05-07T05:48:33.728Z,1704.00
2018-05-07T05:49:33.709Z,1716.00
2018-05-07T05:50:33.694Z,1724.00
2018-05-07T05:51:33.680Z,1736.00
2018-05-07T05:52:33.661Z,1744.00
2018-05-07T05:53:33.648Z,1752.00
2018-05-07T05:54:33.627Z,1760.00
2018-05-07T05:55:33.617Z,1772.00
2018-05-07T05:56:33.595Z,1780.00
2018-05-07T05:57:33.578Z,1792.00
2018-05-07T05:58:33.564Z,1808.00
2018-05-07T05:59:33.545Z,1820.00
2018-05-07T06:00:33.530Z,1832.00
2018-05-07T06:01:33.514Z,1840.00
2018-05-07T06:02:33.504Z,1856.00
2018-05-07T06:03:33.485Z,1868.00
2018-05-07T06:04:33.466Z,1876.00
2018-05-07T06:05:33.450Z,1888.00
2018-05-07T06:06:33.432Z,1900.00
2018-05-07T06:07:33.415Z,1912.00
2018-05-07T06:08:33.401Z,1924.00
2018-05-07T06:09:33.388Z,1936.00
2018-05-07T06:10:33.369Z,1948.00
2018-05-07T06:11:33.353Z,1960.00
2018-05-07T06:12:33.335Z,1972.00
2018-05-07T06:13:33.323Z,1984.00
2018-05-07T06:14:33.505Z,2000.00
2018-05-07T06:15:33.288Z,2008.00
2018-05-07T06:16:33.275Z,2016.00
2018-05-07T06:17:33.261Z,2028.00
2018-05-07T06:18:33.243Z,2044.00
2018-05-07T06:19:33.227Z,2056.00
2018-05-07T06:20:33.211Z,2068.00
2018-05-07T06:21:33.195Z,2080.00
2018-05-07T06:22:33.181Z,2092.00
2018-05-07T06:23:33.167Z,2104.00
2018-05-07T06:24:33.150Z,2120.00
2018-05-07T06:25:33.142Z,2132.00
2018-05-07T06:26:33.121Z,2148.00
2018-05-07T06:27:33.103Z,2168.00
2018-05-07T06:28:33.091Z,2180.00
2018-05-07T06:29:33.075Z,2192.00
2018-05-07T06:30:33.059Z,2208.00
2018-05-07T06:31:33.043Z,2216.00
2018-05-07T06:32:33.032Z,2228.00
2018-05-07T06:33:33.023Z,2236.00
2018-05-07T06:34:32.998Z,2248.00
2018-05-07T06:35:32.988Z,2252.00
2018-05-07T06:36:32.969Z,2264.00
2018-05-07T06:37:32.955Z,2272.00
2018-05-07T06:38:32.937Z,2288.00
2018-05-07T06:39:32.925Z,2300.00
2018-05-07T06:40:32.908Z,2316.00
2018-05-07T06:41:32.895Z,2332.00
2018-05-07T06:42:32.881Z,2340.00
2018-05-07T06:43:32.870Z,2356.00
2018-05-07T06:44:32.856Z,2372.00
2018-05-07T06:45:32.881Z,2384.00
2018-05-07T06:46:32.823Z,2404.00
2018-05-07T06:47:32.811Z,2432.00
2018-05-07T06:48:32.793Z,2460.00
2018-05-07T06:49:32.779Z,2480.00
2018-05-07T06:50:32.767Z,2500.00
2018-05-07T06:51:32.753Z,2528.00
2018-05-07T06:52:32.738Z,2548.00
2018-05-07T06:53:32.728Z,2568.00
2018-05-07T06:54:32.711Z,2584.00
2018-05-07T06:55:32.697Z,2604.00
2018-05-07T06:56:32.683Z,2612.00
2018-05-07T06:57:32.669Z,2624.00
2018-05-07T06:58:32.655Z,2644.00
2018-05-07T06:59:32.642Z,2664.00
2018-05-07T07:00:32.630Z,2684.00
2018-05-07T07:01:32.616Z,2704.00
2018-05-07T07:02:32.841Z,2724.00
2018-05-07T07:03:32.588Z,2748.00
2018-05-07T07:04:32.576Z,2768.00
2018-05-07T07:05:32.565Z,2788.00
2018-05-07T07:06:32.550Z,2812.00
2018-05-07T07:07:32.610Z,2844.00
2018-05-07T07:08:32.665Z,2868.00
2018-05-07T07:09:32.514Z,2892.00
2018-05-07T07:10:32.496Z,2920.00
2018-05-07T07:11:32.483Z,2952.00
2018-05-07T07:12:32.471Z,2980.00
2018-05-07T07:13:32.459Z,3020.00
2018-05-07T07:14:32.445Z,3040.00
2018-05-07T07:15:32.432Z,3068.00
2018-05-07T07:16:32.424Z,3096.00
2018-05-07T07:17:32.410Z,3132.00
2018-05-07T07:18:32.397Z,3164.00
2018-05-07T07:19:32.381Z,3220.00
2018-05-07T07:20:32.374Z,3272.00
2018-05-07T07:21:32.356Z,3336.00
2018-05-07T07:22:32.344Z,3404.00
2018-05-07T07:23:32.335Z,3484.00
2018-05-07T07:24:32.323Z,3576.00
2018-05-07T07:25:32.311Z,3672.00
2018-05-07T07:26:32.309Z,3776.00
2018-05-07T07:27:32.288Z,3908.00
2018-05-07T07:28:32.280Z,4108.00
2018-05-07T07:29:32.261Z,11940.00
2018-05-07T07:30:32.251Z,29504.00
2018-05-07T07:31:32.248Z,46400.00
2018-05-07T07:32:32.229Z,54272.00
2018-05-07T07:33:32.220Z,55168.00
2018-05-07T07:34:32.207Z,57824.00
2018-05-07T07:35:32.196Z,60704.00
2018-05-07T07:36:32.188Z,60832.00
2018-05-07T07:37:32.185Z,59648.00
2018-05-07T07:38:32.174Z,58560.00
2018-05-07T07:39:32.258Z,57408.00
2018-05-07T07:40:32.152Z,59648.00
2018-05-07T07:41:32.144Z,67104.00
2018-05-07T07:42:32.141Z,66048.00
2018-05-07T07:43:32.128Z,62176.00
2018-05-07T07:44:32.132Z,60736.00
2018-05-07T07:45:32.115Z,62176.00
2018-05-07T07:46:32.110Z,63360.00
2018-05-07T07:47:32.104Z,61248.00
2018-05-07T07:48:32.099Z,56576.00
2018-05-07T07:49:32.092Z,56224.00
2018-05-07T07:50:32.088Z,63616.00
2018-05-07T07:51:32.089Z,68448.00
2018-05-07T07:52:32.089Z,61120.00
2018-05-07T07:53:32.125Z,57504.00
2018-05-07T07:54:32.070Z,61952.00
2018-05-07T07:55:32.067Z,60416.00
2018-05-07T07:56:32.062Z,60192.00
2018-05-07T07:57:32.062Z,62752.00
2018-05-07T07:58:32.058Z,58400.00
2018-05-07T07:59:32.058Z,57888.00
2018-05-07T08:00:32.051Z,64224.00
2018-05-07T08:01:32.050Z,67008.00
2018-05-07T08:02:32.048Z,66272.00
2018-05-07T08:03:32.045Z,74976.00
2018-05-07T08:04:32.043Z,77952.00
2018-05-07T08:05:32.041Z,67840.00
2018-05-07T08:06:32.040Z,63968.00
2018-05-07T08:07:32.038Z,75616.00
2018-05-07T08:08:32.037Z,86848.00
2018-05-07T08:09:32.035Z,82592.00
2018-05-07T08:10:32.041Z,72608.00
2018-05-07T08:11:32.035Z,63776.00
2018-05-07T08:12:32.032Z,68384.00
2018-05-07T08:13:32.032Z,80896.00
2018-05-07T08:14:32.032Z,86112.00
2018-05-07T08:15:32.029Z,80672.00
2018-05-07T08:16:32.028Z,76672.00
2018-05-07T08:17:32.032Z,83008.00
2018-05-07T08:18:32.036Z,84096.00
2018-05-07T08:19:32.030Z,81472.00
2018-05-07T08:20:32.029Z,75616.00
2018-05-07T08:21:32.028Z,76288.00
2018-05-07T08:22:32.028Z,80512.00
2018-05-07T08:23:32.025Z,84704.00
2018-05-07T08:24:32.026Z,81152.00
2018-05-07T08:25:32.027Z,75840.00
2018-05-07T08:26:32.026Z,74432.00
2018-05-07T08:27:32.027Z,76352.00
2018-05-07T08:28:32.027Z,78112.00
2018-05-07T08:29:32.028Z,74560.00
2018-05-07T08:30:32.049Z,69632.00
2018-05-07T08:31:32.055Z,71968.00
2018-05-07T08:32:32.028Z,75008.00
2018-05-07T08:33:32.031Z,70048.00
2018-05-07T08:34:32.033Z,54464.00
2018-05-07T08:35:32.031Z,26176.00
2018-05-07T08:36:32.087Z,12808.00
2018-05-07T08:37:32.035Z,12728.00
2018-05-07T08:38:32.030Z,12628.00
2018-05-07T08:39:32.030Z,12604.00
2018-05-07T08:40:32.030Z,12672.00
2018-05-07T08:41:32.038Z,12608.00
2018-05-07T08:42:32.032Z,12540.00
2018-05-07T08:43:32.036Z,12532.00
2018-05-07T08:44:32.030Z,12464.00
2018-05-07T08:45:32.034Z,12472.00
2018-05-07T08:46:32.035Z,12448.00
2018-05-07T08:47:32.036Z,12408.00
2018-05-07T08:48:32.035Z,12424.00
2018-05-07T08:49:32.030Z,12528.00
2018-05-07T08:50:32.029Z,12624.00
2018-05-07T08:51:32.037Z,12784.00
2018-05-07T08:52:32.032Z,13220.00
2018-05-07T08:53:32.037Z,16544.00
2018-05-07T08:54:32.038Z,24448.00
2018-05-07T08:55:32.027Z,32640.00
2018-05-07T08:56:32.026Z,41664.00
2018-05-07T08:57:32.090Z,50688.00
2018-05-07T08:58:32.024Z,61920.00
2018-05-07T08:59:32.021Z,73248.00
2018-05-07T09:00:32.024Z,82848.00
2018-05-07T09:01:32.020Z,88320.00
2018-05-07T09:02:32.021Z,87200.00
2018-05-07T09:03:32.021Z,80544.00
2018-05-07T09:04:32.017Z,73504.00
2018-05-07T09:05:32.017Z,75136.00
2018-05-07T09:06:32.017Z,80096.00
2018-05-07T09:07:32.050Z,80928.00
2018-05-07T09:08:32.011Z,73984.00
2018-05-07T09:09:32.013Z,64384.00
2018-05-07T09:10:32.010Z,57792.00
2018-05-07T09:11:32.008Z,53984.00
2018-05-07T09:12:32.010Z,48928.00
2018-05-07T09:13:32.037Z,40064.00
2018-05-07T09:14:32.005Z,31968.00
2018-05-07T09:15:32.004Z,25600.00
2018-05-07T09:16:32.002Z,18432.00
2018-05-07T09:17:32.002Z,13616.00
2018-05-07T09:18:32.000Z,12528.00
2018-05-07T09:19:31.999Z,12324.00
2018-05-07T09:20:31.999Z,12220.00
2018-05-07T09:21:32.000Z,12152.00
2018-05-07T09:22:31.996Z,12096.00
2018-05-07T09:23:31.998Z,11988.00
2018-05-07T09:24:31.993Z,11908.00
2018-05-07T09:25:31.997Z,11892.00
2018-05-07T09:26:31.991Z,11788.00
2018-05-07T09:27:31.990Z,11828.00
2018-05-07T09:28:31.990Z,11752.00
2018-05-07T09:29:31.986Z,11660.00
2018-05-07T09:30:31.989Z,11648.00
2018-05-07T09:31:32.061Z,11520.00
2018-05-07T09:32:31.985Z,11492.00
2018-05-07T09:33:31.983Z,11368.00
2018-05-07T09:34:31.983Z,11236.00
2018-05-07T09:35:31.983Z,11128.00
2018-05-07T09:36:31.980Z,11016.00
2018-05-07T09:37:31.980Z,10996.00
2018-05-07T09:38:31.979Z,10968.00
2018-05-07T09:39:31.977Z,10916.00
2018-05-07T09:40:31.975Z,10736.00
2018-05-07T09:41:31.977Z,10636.00
2018-05-07T09:42:31.974Z,10600.00
2018-05-07T09:43:31.972Z,10552.00
2018-05-07T09:44:31.972Z,10472.00
2018-05-07T09:45:31.970Z,10456.00
2018-05-07T09:46:31.971Z,10492.00
2018-05-07T09:47:31.969Z,10548.00
2018-05-07T09:48:31.969Z,10476.00
2018-05-07T09:49:31.968Z,10420.00
2018-05-07T09:50:31.983Z,10472.00
2018-05-07T09:51:31.964Z,10560.00
2018-05-07T09:52:31.963Z,10696.00
2018-05-07T09:53:31.968Z,10776.00
2018-05-07T09:54:31.964Z,10952.00
2018-05-07T09:55:31.960Z,11128.00
2018-05-07T09:56:31.960Z,11404.00
2018-05-07T09:57:31.959Z,11996.00
2018-05-07T09:58:31.957Z,33120.00
2018-05-07T09:59:31.958Z,89952.00
2018-05-07T10:00:31.959Z,105184.00
2018-05-07T10:01:31.959Z,103872.00
2018-05-07T10:02:32.027Z,104448.00
2018-05-07T10:03:31.957Z,104992.00
2018-05-07T10:04:31.954Z,106976.00
2018-05-07T10:05:31.954Z,109056.00
2018-05-07T10:06:31.955Z,108096.00
2018-05-07T10:07:31.952Z,103776.00
2018-05-07T10:08:31.952Z,100384.00
2018-05-07T10:09:31.952Z,104288.00
2018-05-07T10:10:31.958Z,111680.00
2018-05-07T10:11:31.953Z,115616.00
2018-05-07T10:12:31.952Z,111840.00
2018-05-07T10:13:31.952Z,106944.00
2018-05-07T10:14:31.954Z,104192.00
2018-05-07T10:15:31.957Z,106624.00
2018-05-07T10:16:31.953Z,107840.00
2018-05-07T10:17:31.956Z,110176.00
2018-05-07T10:18:31.957Z,108672.00
2018-05-07T10:19:31.956Z,108864.00
2018-05-07T10:20:31.959Z,109312.00
2018-05-07T10:21:31.960Z,110720.00
2018-05-07T10:22:31.963Z,113056.00
2018-05-07T10:23:32.008Z,110304.00
2018-05-07T10:24:31.966Z,112672.00
2018-05-07T10:25:31.965Z,112544.00
2018-05-07T10:26:31.968Z,112800.00
2018-05-07T10:27:31.968Z,111776.00
2018-05-07T10:28:32.026Z,111712.00
2018-05-07T10:29:31.978Z,112896.00
2018-05-07T10:30:31.984Z,114432.00
2018-05-07T10:31:31.979Z,113888.00
2018-05-07T10:32:31.981Z,112800.00
2018-05-07T10:33:31.984Z,110464.00
2018-05-07T10:34:31.986Z,111712.00
2018-05-07T10:35:31.989Z,112640.00
2018-05-07T10:36:31.990Z,113952.00
2018-05-07T10:37:31.994Z,110496.00
2018-05-07T10:38:31.995Z,109184.00
2018-05-07T10:39:32.002Z,107360.00
2018-05-07T10:40:32.003Z,111072.00
2018-05-07T10:41:32.007Z,113504.00
2018-05-07T10:42:32.010Z,113280.00
2018-05-07T10:43:32.012Z,109088.00
2018-05-07T10:44:32.017Z,106176.00
2018-05-07T10:45:32.021Z,104768.00
2018-05-07T10:46:32.025Z,107168.00
2018-05-07T10:47:32.028Z,108928.00
2018-05-07T10:48:32.032Z,113440.00
2018-05-07T10:49:32.044Z,111968.00
2018-05-07T10:50:32.039Z,108896.00
2018-05-07T10:51:32.043Z,108256.00
2018-05-07T10:52:32.047Z,109920.00
2018-05-07T10:53:32.052Z,111904.00
2018-05-07T10:54:32.056Z,110464.00
2018-05-07T10:55:32.059Z,104544.00
2018-05-07T10:56:32.063Z,102432.00
2018-05-07T10:57:32.071Z,102656.00
2018-05-07T10:58:32.074Z,105888.00
2018-05-07T10:59:32.074Z,112128.00
2018-05-07T11:00:32.084Z,112320.00
2018-05-07T11:01:32.107Z,112896.00
2018-05-07T11:02:32.090Z,111488.00
2018-05-07T11:03:32.098Z,110144.00
2018-05-07T11:04:32.097Z,113248.00
2018-05-07T11:05:32.106Z,108832.00
2018-05-07T11:06:32.108Z,103104.00
2018-05-07T11:07:32.111Z,99552.00
2018-05-07T11:08:32.117Z,101280.00
2018-05-07T11:09:32.122Z,109504.00
2018-05-07T11:10:32.127Z,111296.00
2018-05-07T11:11:32.136Z,113632.00
2018-05-07T11:12:32.138Z,106336.00
2018-05-07T11:13:32.190Z,101760.00
2018-05-07T11:14:32.148Z,98432.00
2018-05-07T11:15:32.153Z,99328.00
2018-05-07T11:16:32.159Z,104960.00
2018-05-07T11:17:32.164Z,108032.00
2018-05-07T11:18:32.176Z,109184.00
2018-05-07T11:19:32.176Z,105664.00
2018-05-07T11:20:32.189Z,101248.00
2018-05-07T11:21:32.188Z,97760.00
2018-05-07T11:22:32.193Z,98272.00
2018-05-07T11:23:32.197Z,96320.00
2018-05-07T11:24:32.204Z,94272.00
2018-05-07T11:25:32.213Z,92256.00
2018-05-07T11:26:32.216Z,91776.00
2018-05-07T11:27:32.222Z,95392.00
2018-05-07T11:28:32.228Z,104000.00
2018-05-07T11:29:32.233Z,111872.00
2018-05-07T11:30:32.240Z,110752.00
2018-05-07T11:31:32.244Z,107168.00
2018-05-07T11:32:32.251Z,102752.00
2018-05-07T11:33:32.260Z,99424.00
2018-05-07T11:34:32.264Z,97056.00
2018-05-07T11:35:32.275Z,97472.00
2018-05-07T11:36:32.281Z,101664.00
2018-05-07T11:37:32.285Z,104032.00
2018-05-07T11:38:32.289Z,104192.00
2018-05-07T11:39:32.301Z,104384.00
2018-05-07T11:40:32.304Z,100448.00
2018-05-07T11:41:32.315Z,97024.00
2018-05-07T11:42:32.318Z,92512.00
2018-05-07T11:43:32.322Z,86688.00
2018-05-07T11:44:32.329Z,86304.00
2018-05-07T11:45:32.337Z,95328.00
2018-05-07T11:46:32.344Z,104864.00
2018-05-07T11:47:32.409Z,108896.00
2018-05-07T11:48:32.363Z,110016.00
2018-05-07T11:49:32.363Z,112832.00
2018-05-07T11:50:32.371Z,115520.00
2018-05-07T11:51:32.378Z,117792.00
2018-05-07T11:52:32.384Z,107008.00
2018-05-07T11:53:32.392Z,109024.00
2018-05-07T11:54:32.400Z,102560.00
2018-05-07T11:55:32.407Z,98528.00
2018-05-07T11:56:32.413Z,86016.00
2018-05-07T11:57:32.421Z,97184.00
2018-05-07T11:58:32.427Z,97472.00
2018-05-07T11:59:32.434Z,102240.00
2018-05-07T12:00:32.442Z,107680.00
2018-05-07T12:01:32.452Z,107744.00
2018-05-07T12:02:32.641Z,101952.00
2018-05-07T12:03:32.463Z,100832.00
2018-05-07T12:04:32.470Z,96256.00
2018-05-07T12:05:32.477Z,84352.00
2018-05-07T12:06:32.487Z,90848.00
2018-05-07T12:07:32.491Z,103392.00
2018-05-07T12:08:32.504Z,116000.00
2018-05-07T12:09:32.510Z,114368.00
2018-05-07T12:10:32.516Z,106400.00
2018-05-07T12:11:32.523Z,100800.00
2018-05-07T12:12:32.530Z,89760.00
2018-05-07T12:13:32.541Z,93760.00